sensor_id;sensor_type;location;lat;lon;timestamp;P1;durP1;ratioP1;P2;durP2;ratioP2
12703;SDS011;6416;52.182;7.650;2023-02-22T00:01:39;39.97;;;28.17;;
12703;SDS011;6416;52.182;7.650;2023-02-22T00:04:05;41.90;;;28.83;;
12703;SDS011;6416;52.182;7.650;2023-02-22T00:06:31;36.87;;;27.40;;
12703;SDS011;6416;52.182;7.650;2023-02-22T00:08:57;41.00;;;29.80;;
12703;SDS011;6416;52.182;7.650;2023-02-22T00:11:23;39.57;;;27.97;;
12703;SDS011;6416;52.182;7.650;2023-02-22T00:13:49;41.17;;;28.37;;
12703;SDS011;6416;52.182;7.650;2023-02-22T00:16:16;39.20;;;27.23;;
12703;SDS011;6416;52.182;7.650;2023-02-22T00:18:44;40.77;;;27.73;;
12703;SDS011;6416;52.182;7.650;2023-02-22T00:21:10;40.00;;;28.17;;
12703;SDS011;6416;52.182;7.650;2023-02-22T00:23:38;38.00;;;27.00;;
12703;SDS011;6416;52.182;7.650;2023-02-22T00:26:07;41.00;;;28.00;;
12703;SDS011;6416;52.182;7.650;2023-02-22T00:28:33;37.00;;;27.10;;
12703;SDS011;6416;52.182;7.650;2023-02-22T00:30:58;36.53;;;26.60;;
12703;SDS011;6416;52.182;7.650;2023-02-22T00:33:24;37.13;;;26.30;;
12703;SDS011;6416;52.182;7.650;2023-02-22T00:35:49;37.67;;;27.00;;
12703;SDS011;6416;52.182;7.650;2023-02-22T00:38:16;37.47;;;27.43;;
12703;SDS011;6416;52.182;7.650;2023-02-22T00:40:43;36.87;;;26.47;;
12703;SDS011;6416;52.182;7.650;2023-02-22T00:43:08;37.80;;;26.90;;
12703;SDS011;6416;52.182;7.650;2023-02-22T00:45:34;37.03;;;26.83;;
12703;SDS011;6416;52.182;7.650;2023-02-22T00:48:01;36.77;;;25.53;;
12703;SDS011;6416;52.182;7.650;2023-02-22T00:50:28;38.90;;;27.57;;
12703;SDS011;6416;52.182;7.650;2023-02-22T00:52:55;40.20;;;25.93;;
12703;SDS011;6416;52.182;7.650;2023-02-22T00:55:23;37.13;;;26.37;;
12703;SDS011;6416;52.182;7.650;2023-02-22T00:57:54;35.13;;;25.77;;
12703;SDS011;6416;52.182;7.650;2023-02-22T01:00:21;38.23;;;25.93;;
12703;SDS011;6416;52.182;7.650;2023-02-22T01:02:55;38.40;;;26.47;;
12703;SDS011;6416;52.182;7.650;2023-02-22T01:05:21;34.97;;;25.40;;
12703;SDS011;6416;52.182;7.650;2023-02-22T01:07:48;33.20;;;24.43;;
12703;SDS011;6416;52.182;7.650;2023-02-22T01:10:14;35.13;;;24.87;;
12703;SDS011;6416;52.182;7.650;2023-02-22T01:12:43;35.67;;;25.07;;
12703;SDS011;6416;52.182;7.650;2023-02-22T01:15:10;32.63;;;23.27;;
12703;SDS011;6416;52.182;7.650;2023-02-22T01:17:36;35.33;;;24.93;;
12703;SDS011;6416;52.182;7.650;2023-02-22T01:20:04;35.00;;;25.00;;
12703;SDS011;6416;52.182;7.650;2023-02-22T01:22:31;35.93;;;26.97;;
12703;SDS011;6416;52.182;7.650;2023-02-22T01:24:56;35.30;;;25.50;;
12703;SDS011;6416;52.182;7.650;2023-02-22T01:27:22;33.10;;;23.87;;
12703;SDS011;6416;52.182;7.650;2023-02-22T01:29:47;33.80;;;25.27;;
12703;SDS011;6416;52.182;7.650;2023-02-22T01:32:13;35.83;;;24.70;;
12703;SDS011;6416;52.182;7.650;2023-02-22T01:34:39;34.17;;;24.23;;
12703;SDS011;6416;52.182;7.650;2023-02-22T01:37:07;33.63;;;24.83;;
12703;SDS011;6416;52.182;7.650;2023-02-22T01:39:33;34.20;;;24.70;;
12703;SDS011;6416;52.182;7.650;2023-02-22T01:41:59;33.23;;;23.80;;
12703;SDS011;6416;52.182;7.650;2023-02-22T01:44:32;33.10;;;22.67;;
12703;SDS011;6416;52.182;7.650;2023-02-22T01:47:00;32.67;;;22.43;;
12703;SDS011;6416;52.182;7.650;2023-02-22T01:49:32;32.20;;;22.27;;
12703;SDS011;6416;52.182;7.650;2023-02-22T01:52:04;31.97;;;22.70;;
12703;SDS011;6416;52.182;7.650;2023-02-22T01:54:33;33.10;;;23.27;;
12703;SDS011;6416;52.182;7.650;2023-02-22T01:57:03;30.40;;;22.30;;
12703;SDS011;6416;52.182;7.650;2023-02-22T01:59:29;30.60;;;22.27;;
12703;SDS011;6416;52.182;7.650;2023-02-22T02:01:58;30.57;;;22.17;;
12703;SDS011;6416;52.182;7.650;2023-02-22T02:04:25;31.60;;;22.33;;
12703;SDS011;6416;52.182;7.650;2023-02-22T02:06:52;27.83;;;20.33;;
12703;SDS011;6416;52.182;7.650;2023-02-22T02:09:24;31.90;;;21.43;;
12703;SDS011;6416;52.182;7.650;2023-02-22T02:11:57;30.00;;;20.97;;
12703;SDS011;6416;52.182;7.650;2023-02-22T02:14:24;29.97;;;20.80;;
12703;SDS011;6416;52.182;7.650;2023-02-22T02:16:49;31.90;;;22.60;;
12703;SDS011;6416;52.182;7.650;2023-02-22T02:19:27;29.23;;;20.70;;
12703;SDS011;6416;52.182;7.650;2023-02-22T02:22:14;28.47;;;20.10;;
12703;SDS011;6416;52.182;7.650;2023-02-22T02:27:50;25.03;;;17.70;;
12703;SDS011;6416;52.182;7.650;2023-02-22T02:47:01;28.27;;;18.27;;
12703;SDS011;6416;52.182;7.650;2023-02-22T02:49:30;27.60;;;18.70;;
12703;SDS011;6416;52.182;7.650;2023-02-22T02:52:00;27.53;;;19.10;;
12703;SDS011;6416;52.182;7.650;2023-02-22T02:54:28;29.97;;;19.47;;
12703;SDS011;6416;52.182;7.650;2023-02-22T02:56:55;28.70;;;20.00;;
12703;SDS011;6416;52.182;7.650;2023-02-22T02:59:42;27.43;;;18.80;;
12703;SDS011;6416;52.182;7.650;2023-02-22T03:08:00;34.33;;;19.80;;
12703;SDS011;6416;52.182;7.650;2023-02-22T03:10:49;36.10;;;18.37;;
12703;SDS011;6416;52.182;7.650;2023-02-22T03:14:05;29.20;;;16.43;;
12703;SDS011;6416;52.182;7.650;2023-02-22T03:22:01;24.93;;;15.40;;
12703;SDS011;6416;52.182;7.650;2023-02-22T03:24:32;26.33;;;16.27;;
12703;SDS011;6416;52.182;7.650;2023-02-22T03:27:07;31.70;;;17.00;;
12703;SDS011;6416;52.182;7.650;2023-02-22T03:29:47;25.37;;;16.37;;
12703;SDS011;6416;52.182;7.650;2023-02-22T03:32:21;21.37;;;16.30;;
12703;SDS011;6416;52.182;7.650;2023-02-22T03:34:56;29.70;;;15.37;;
12703;SDS011;6416;52.182;7.650;2023-02-22T03:37:26;23.77;;;15.27;;
12703;SDS011;6416;52.182;7.650;2023-02-22T03:39:54;25.50;;;15.27;;
12703;SDS011;6416;52.182;7.650;2023-02-22T03:42:24;32.00;;;15.97;;
12703;SDS011;6416;52.182;7.650;2023-02-22T03:44:59;26.90;;;17.10;;
12703;SDS011;6416;52.182;7.650;2023-02-22T03:47:29;33.47;;;14.53;;
12703;SDS011;6416;52.182;7.650;2023-02-22T03:50:20;33.33;;;15.23;;
12703;SDS011;6416;52.182;7.650;2023-02-22T03:52:49;32.63;;;15.50;;
12703;SDS011;6416;52.182;7.650;2023-02-22T03:55:14;25.70;;;15.03;;
12703;SDS011;6416;52.182;7.650;2023-02-22T03:57:41;31.27;;;13.67;;
12703;SDS011;6416;52.182;7.650;2023-02-22T04:00:14;23.13;;;14.27;;
12703;SDS011;6416;52.182;7.650;2023-02-22T04:02:45;24.33;;;12.87;;
12703;SDS011;6416;52.182;7.650;2023-02-22T04:05:10;27.30;;;13.40;;
12703;SDS011;6416;52.182;7.650;2023-02-22T04:07:36;24.17;;;13.10;;
12703;SDS011;6416;52.182;7.650;2023-02-22T04:10:02;22.40;;;13.23;;
12703;SDS011;6416;52.182;7.650;2023-02-22T04:12:28;29.43;;;14.00;;
12703;SDS011;6416;52.182;7.650;2023-02-22T04:14:53;29.37;;;13.53;;
12703;SDS011;6416;52.182;7.650;2023-02-22T04:17:19;19.13;;;12.47;;
12703;SDS011;6416;52.182;7.650;2023-02-22T04:19:44;23.73;;;13.27;;
12703;SDS011;6416;52.182;7.650;2023-02-22T04:22:10;22.97;;;13.03;;
12703;SDS011;6416;52.182;7.650;2023-02-22T04:24:36;17.20;;;12.20;;
12703;SDS011;6416;52.182;7.650;2023-02-22T04:27:01;29.30;;;13.40;;
12703;SDS011;6416;52.182;7.650;2023-02-22T04:29:27;16.80;;;12.10;;
12703;SDS011;6416;52.182;7.650;2023-02-22T04:31:53;20.87;;;12.07;;
12703;SDS011;6416;52.182;7.650;2023-02-22T04:34:18;22.27;;;12.17;;
12703;SDS011;6416;52.182;7.650;2023-02-22T04:36:44;18.63;;;12.23;;
12703;SDS011;6416;52.182;7.650;2023-02-22T04:39:09;19.67;;;12.40;;
12703;SDS011;6416;52.182;7.650;2023-02-22T04:41:35;28.03;;;13.47;;
12703;SDS011;6416;52.182;7.650;2023-02-22T04:44:00;25.80;;;12.07;;
12703;SDS011;6416;52.182;7.650;2023-02-22T04:46:26;17.37;;;12.50;;
12703;SDS011;6416;52.182;7.650;2023-02-22T04:48:52;26.47;;;12.80;;
12703;SDS011;6416;52.182;7.650;2023-02-22T04:51:18;21.37;;;11.80;;
12703;SDS011;6416;52.182;7.650;2023-02-22T04:53:44;26.60;;;13.37;;
12703;SDS011;6416;52.182;7.650;2023-02-22T04:56:10;18.57;;;12.93;;
12703;SDS011;6416;52.182;7.650;2023-02-22T04:58:35;19.50;;;13.00;;
12703;SDS011;6416;52.182;7.650;2023-02-22T05:01:01;21.57;;;14.10;;
12703;SDS011;6416;52.182;7.650;2023-02-22T05:03:27;19.43;;;12.03;;
12703;SDS011;6416;52.182;7.650;2023-02-22T05:05:52;20.53;;;13.53;;
12703;SDS011;6416;52.182;7.650;2023-02-22T05:08:18;30.60;;;12.70;;
12703;SDS011;6416;52.182;7.650;2023-02-22T05:10:44;20.93;;;13.50;;
12703;SDS011;6416;52.182;7.650;2023-02-22T05:13:09;23.10;;;13.03;;
12703;SDS011;6416;52.182;7.650;2023-02-22T05:15:35;24.13;;;13.73;;
12703;SDS011;6416;52.182;7.650;2023-02-22T05:18:00;19.10;;;13.93;;
12703;SDS011;6416;52.182;7.650;2023-02-22T05:20:27;20.90;;;12.73;;
12703;SDS011;6416;52.182;7.650;2023-02-22T05:22:56;22.53;;;11.77;;
12703;SDS011;6416;52.182;7.650;2023-02-22T05:25:23;18.60;;;12.10;;
12703;SDS011;6416;52.182;7.650;2023-02-22T05:27:50;17.63;;;12.40;;
12703;SDS011;6416;52.182;7.650;2023-02-22T05:30:16;18.20;;;12.57;;
12703;SDS011;6416;52.182;7.650;2023-02-22T05:32:43;21.53;;;13.67;;
12703;SDS011;6416;52.182;7.650;2023-02-22T05:35:08;18.70;;;13.80;;
12703;SDS011;6416;52.182;7.650;2023-02-22T05:37:34;19.10;;;11.90;;
12703;SDS011;6416;52.182;7.650;2023-02-22T05:39:59;16.63;;;12.37;;
12703;SDS011;6416;52.182;7.650;2023-02-22T05:42:25;18.67;;;13.27;;
12703;SDS011;6416;52.182;7.650;2023-02-22T05:44:50;18.43;;;13.03;;
12703;SDS011;6416;52.182;7.650;2023-02-22T05:47:15;16.90;;;12.57;;
12703;SDS011;6416;52.182;7.650;2023-02-22T05:49:41;19.43;;;13.30;;
12703;SDS011;6416;52.182;7.650;2023-02-22T05:52:06;20.63;;;13.33;;
12703;SDS011;6416;52.182;7.650;2023-02-22T05:54:32;20.13;;;12.27;;
12703;SDS011;6416;52.182;7.650;2023-02-22T05:56:57;19.07;;;12.60;;
12703;SDS011;6416;52.182;7.650;2023-02-22T05:59:23;15.87;;;11.93;;
12703;SDS011;6416;52.182;7.650;2023-02-22T06:01:48;16.57;;;11.43;;
12703;SDS011;6416;52.182;7.650;2023-02-22T06:04:14;14.30;;;10.37;;
12703;SDS011;6416;52.182;7.650;2023-02-22T06:06:39;14.60;;;11.23;;
12703;SDS011;6416;52.182;7.650;2023-02-22T06:09:05;14.70;;;11.30;;
12703;SDS011;6416;52.182;7.650;2023-02-22T06:11:30;15.83;;;11.80;;
12703;SDS011;6416;52.182;7.650;2023-02-22T06:13:56;15.10;;;11.90;;
12703;SDS011;6416;52.182;7.650;2023-02-22T06:16:21;21.97;;;12.47;;
12703;SDS011;6416;52.182;7.650;2023-02-22T06:18:47;16.10;;;12.37;;
12703;SDS011;6416;52.182;7.650;2023-02-22T06:21:13;18.30;;;12.77;;
12703;SDS011;6416;52.182;7.650;2023-02-22T06:23:39;13.27;;;11.20;;
12703;SDS011;6416;52.182;7.650;2023-02-22T06:26:04;15.00;;;11.97;;
12703;SDS011;6416;52.182;7.650;2023-02-22T06:28:30;13.63;;;11.63;;
12703;SDS011;6416;52.182;7.650;2023-02-22T06:30:55;22.07;;;11.40;;
12703;SDS011;6416;52.182;7.650;2023-02-22T06:33:21;16.43;;;11.47;;
12703;SDS011;6416;52.182;7.650;2023-02-22T06:35:46;12.10;;;10.50;;
12703;SDS011;6416;52.182;7.650;2023-02-22T06:38:19;16.20;;;10.90;;
12703;SDS011;6416;52.182;7.650;2023-02-22T06:40:46;13.27;;;10.43;;
12703;SDS011;6416;52.182;7.650;2023-02-22T06:43:11;14.47;;;10.93;;
12703;SDS011;6416;52.182;7.650;2023-02-22T06:45:37;15.87;;;12.00;;
12703;SDS011;6416;52.182;7.650;2023-02-22T06:48:02;14.80;;;10.90;;
12703;SDS011;6416;52.182;7.650;2023-02-22T06:50:28;12.63;;;10.47;;
12703;SDS011;6416;52.182;7.650;2023-02-22T06:52:54;12.27;;;10.20;;
12703;SDS011;6416;52.182;7.650;2023-02-22T06:55:22;15.00;;;11.30;;
12703;SDS011;6416;52.182;7.650;2023-02-22T06:57:49;14.33;;;12.17;;
12703;SDS011;6416;52.182;7.650;2023-02-22T07:00:16;13.90;;;11.50;;
12703;SDS011;6416;52.182;7.650;2023-02-22T07:02:43;16.73;;;11.57;;
12703;SDS011;6416;52.182;7.650;2023-02-22T07:05:10;17.00;;;11.03;;
12703;SDS011;6416;52.182;7.650;2023-02-22T07:07:36;14.00;;;10.40;;
12703;SDS011;6416;52.182;7.650;2023-02-22T07:10:01;14.40;;;10.13;;
12703;SDS011;6416;52.182;7.650;2023-02-22T07:12:27;11.93;;;10.27;;
12703;SDS011;6416;52.182;7.650;2023-02-22T07:14:55;13.40;;;10.33;;
12703;SDS011;6416;52.182;7.650;2023-02-22T07:17:21;11.10;;;9.63;;
12703;SDS011;6416;52.182;7.650;2023-02-22T07:19:49;12.80;;;10.17;;
12703;SDS011;6416;52.182;7.650;2023-02-22T07:22:15;12.43;;;9.33;;
12703;SDS011;6416;52.182;7.650;2023-02-22T07:24:40;11.67;;;9.67;;
12703;SDS011;6416;52.182;7.650;2023-02-22T07:27:05;12.70;;;10.27;;
12703;SDS011;6416;52.182;7.650;2023-02-22T07:29:31;13.53;;;10.20;;
12703;SDS011;6416;52.182;7.650;2023-02-22T07:31:56;15.47;;;10.20;;
12703;SDS011;6416;52.182;7.650;2023-02-22T07:34:22;11.33;;;9.97;;
12703;SDS011;6416;52.182;7.650;2023-02-22T07:36:47;14.50;;;10.53;;
12703;SDS011;6416;52.182;7.650;2023-02-22T07:39:13;11.47;;;10.27;;
12703;SDS011;6416;52.182;7.650;2023-02-22T07:41:38;14.73;;;10.40;;
12703;SDS011;6416;52.182;7.650;2023-02-22T07:44:04;13.00;;;10.27;;
12703;SDS011;6416;52.182;7.650;2023-02-22T07:46:29;11.73;;;10.37;;
12703;SDS011;6416;52.182;7.650;2023-02-22T07:48:55;13.30;;;10.80;;
12703;SDS011;6416;52.182;7.650;2023-02-22T07:51:20;13.23;;;10.37;;
12703;SDS011;6416;52.182;7.650;2023-02-22T07:53:46;13.87;;;10.37;;
12703;SDS011;6416;52.182;7.650;2023-02-22T07:56:12;12.73;;;10.23;;
12703;SDS011;6416;52.182;7.650;2023-02-22T07:58:38;10.50;;;9.30;;
12703;SDS011;6416;52.182;7.650;2023-02-22T08:01:03;11.97;;;9.90;;
12703;SDS011;6416;52.182;7.650;2023-02-22T08:03:32;10.57;;;9.07;;
12703;SDS011;6416;52.182;7.650;2023-02-22T08:05:58;10.77;;;9.30;;
12703;SDS011;6416;52.182;7.650;2023-02-22T08:08:24;12.37;;;9.63;;
12703;SDS011;6416;52.182;7.650;2023-02-22T08:10:50;10.03;;;9.03;;
12703;SDS011;6416;52.182;7.650;2023-02-22T08:13:16;12.10;;;9.57;;
12703;SDS011;6416;52.182;7.650;2023-02-22T08:15:42;14.23;;;9.87;;
12703;SDS011;6416;52.182;7.650;2023-02-22T08:18:09;10.03;;;8.87;;
12703;SDS011;6416;52.182;7.650;2023-02-22T08:20:37;9.50;;;8.50;;
12703;SDS011;6416;52.182;7.650;2023-02-22T08:23:04;10.50;;;8.60;;
12703;SDS011;6416;52.182;7.650;2023-02-22T08:25:31;9.07;;;8.17;;
12703;SDS011;6416;52.182;7.650;2023-02-22T08:27:58;9.00;;;7.60;;
12703;SDS011;6416;52.182;7.650;2023-02-22T08:30:26;12.10;;;8.07;;
12703;SDS011;6416;52.182;7.650;2023-02-22T08:32:54;8.57;;;7.67;;
12703;SDS011;6416;52.182;7.650;2023-02-22T08:35:20;8.07;;;7.27;;
12703;SDS011;6416;52.182;7.650;2023-02-22T08:37:47;9.43;;;7.83;;
12703;SDS011;6416;52.182;7.650;2023-02-22T08:40:15;11.70;;;7.93;;
12703;SDS011;6416;52.182;7.650;2023-02-22T08:42:42;9.80;;;6.70;;
12703;SDS011;6416;52.182;7.650;2023-02-22T08:45:07;8.37;;;7.40;;
12703;SDS011;6416;52.182;7.650;2023-02-22T08:47:34;14.43;;;7.20;;
12703;SDS011;6416;52.182;7.650;2023-02-22T08:49:59;9.70;;;7.80;;
12703;SDS011;6416;52.182;7.650;2023-02-22T08:52:25;8.37;;;7.50;;
12703;SDS011;6416;52.182;7.650;2023-02-22T08:54:52;10.47;;;7.73;;
12703;SDS011;6416;52.182;7.650;2023-02-22T08:57:17;8.77;;;7.47;;
12703;SDS011;6416;52.182;7.650;2023-02-22T08:59:43;9.97;;;7.87;;
12703;SDS011;6416;52.182;7.650;2023-02-22T09:02:15;9.27;;;8.13;;
12703;SDS011;6416;52.182;7.650;2023-02-22T09:04:42;9.70;;;8.07;;
12703;SDS011;6416;52.182;7.650;2023-02-22T09:07:08;8.43;;;7.43;;
12703;SDS011;6416;52.182;7.650;2023-02-22T09:09:33;10.13;;;8.10;;
12703;SDS011;6416;52.182;7.650;2023-02-22T09:11:59;10.40;;;8.77;;
12703;SDS011;6416;52.182;7.650;2023-02-22T09:14:24;9.33;;;8.00;;
12703;SDS011;6416;52.182;7.650;2023-02-22T09:16:50;8.80;;;7.90;;
12703;SDS011;6416;52.182;7.650;2023-02-22T09:19:15;8.43;;;7.63;;
12703;SDS011;6416;52.182;7.650;2023-02-22T09:21:41;8.97;;;7.97;;
12703;SDS011;6416;52.182;7.650;2023-02-22T09:24:06;8.13;;;7.23;;
12703;SDS011;6416;52.182;7.650;2023-02-22T09:26:32;7.40;;;6.70;;
12703;SDS011;6416;52.182;7.650;2023-02-22T09:28:59;7.97;;;7.13;;
12703;SDS011;6416;52.182;7.650;2023-02-22T09:31:24;8.40;;;7.60;;
12703;SDS011;6416;52.182;7.650;2023-02-22T09:33:50;8.87;;;8.00;;
12703;SDS011;6416;52.182;7.650;2023-02-22T09:36:15;10.23;;;8.60;;
12703;SDS011;6416;52.182;7.650;2023-02-22T09:38:40;8.63;;;7.80;;
12703;SDS011;6416;52.182;7.650;2023-02-22T09:41:08;10.27;;;8.50;;
12703;SDS011;6416;52.182;7.650;2023-02-22T09:43:45;8.97;;;8.07;;
12703;SDS011;6416;52.182;7.650;2023-02-22T09:51:47;9.70;;;8.43;;
12703;SDS011;6416;52.182;7.650;2023-02-22T09:54:27;10.47;;;9.07;;
12703;SDS011;6416;52.182;7.650;2023-02-22T09:56:57;9.07;;;8.13;;
12703;SDS011;6416;52.182;7.650;2023-02-22T09:59:27;10.13;;;8.27;;
12703;SDS011;6416;52.182;7.650;2023-02-22T10:01:59;10.57;;;8.60;;
12703;SDS011;6416;52.182;7.650;2023-02-22T10:04:39;10.77;;;8.63;;
12703;SDS011;6416;52.182;7.650;2023-02-22T10:07:11;9.40;;;8.40;;
12703;SDS011;6416;52.182;7.650;2023-02-22T10:09:47;8.73;;;7.90;;
12703;SDS011;6416;52.182;7.650;2023-02-22T10:12:17;9.93;;;8.93;;
12703;SDS011;6416;52.182;7.650;2023-02-22T10:20:59;9.30;;;8.40;;
12703;SDS011;6416;52.182;7.650;2023-02-22T10:23:45;9.90;;;8.90;;
12703;SDS011;6416;52.182;7.650;2023-02-22T10:26:26;10.20;;;9.10;;
12703;SDS011;6416;52.182;7.650;2023-02-22T10:29:00;10.17;;;8.97;;
12703;SDS011;6416;52.182;7.650;2023-02-22T10:31:47;10.03;;;9.03;;
12703;SDS011;6416;52.182;7.650;2023-02-22T10:34:20;10.37;;;9.20;;
12703;SDS011;6416;52.182;7.650;2023-02-22T10:36:53;9.83;;;8.80;;
12703;SDS011;6416;52.182;7.650;2023-02-22T10:39:26;10.33;;;9.23;;
12703;SDS011;6416;52.182;7.650;2023-02-22T10:41:57;10.50;;;9.43;;
12703;SDS011;6416;52.182;7.650;2023-02-22T10:44:33;13.20;;;10.10;;
12703;SDS011;6416;52.182;7.650;2023-02-22T10:47:00;11.43;;;10.23;;
12703;SDS011;6416;52.182;7.650;2023-02-22T10:49:29;11.17;;;10.00;;
12703;SDS011;6416;52.182;7.650;2023-02-22T10:52:01;12.23;;;10.67;;
12703;SDS011;6416;52.182;7.650;2023-02-22T10:54:32;11.27;;;10.13;;
12703;SDS011;6416;52.182;7.650;2023-02-22T10:57:03;11.50;;;9.97;;
12703;SDS011;6416;52.182;7.650;2023-02-22T10:59:39;10.97;;;9.87;;
12703;SDS011;6416;52.182;7.650;2023-02-22T11:02:26;11.17;;;9.97;;
12703;SDS011;6416;52.182;7.650;2023-02-22T11:04:56;10.83;;;9.73;;
12703;SDS011;6416;52.182;7.650;2023-02-22T11:07:25;9.90;;;8.80;;
12703;SDS011;6416;52.182;7.650;2023-02-22T11:09:54;10.23;;;9.20;;
12703;SDS011;6416;52.182;7.650;2023-02-22T11:14:50;11.13;;;9.83;;
12703;SDS011;6416;52.182;7.650;2023-02-22T11:17:17;10.07;;;9.07;;
12703;SDS011;6416;52.182;7.650;2023-02-22T11:19:48;10.97;;;8.97;;
12703;SDS011;6416;52.182;7.650;2023-02-22T11:22:19;10.13;;;9.13;;
12703;SDS011;6416;52.182;7.650;2023-02-22T11:25:05;10.80;;;9.70;;
12703;SDS011;6416;52.182;7.650;2023-02-22T11:27:36;11.00;;;9.77;;
12703;SDS011;6416;52.182;7.650;2023-02-22T11:30:09;10.87;;;9.77;;
12703;SDS011;6416;52.182;7.650;2023-02-22T11:32:35;9.90;;;8.90;;
12703;SDS011;6416;52.182;7.650;2023-02-22T11:35:19;10.57;;;9.47;;
12703;SDS011;6416;52.182;7.650;2023-02-22T11:38:14;9.60;;;8.60;;
12703;SDS011;6416;52.182;7.650;2023-02-22T11:40:40;10.80;;;9.70;;
12703;SDS011;6416;52.182;7.650;2023-02-22T11:43:13;10.80;;;9.70;;
12703;SDS011;6416;52.182;7.650;2023-02-22T11:45:56;10.40;;;9.18;;
12703;SDS011;6416;52.182;7.650;2023-02-22T11:48:28;10.68;;;9.27;;
12703;SDS011;6416;52.182;7.650;2023-02-22T11:51:09;11.07;;;9.98;;
12703;SDS011;6416;52.182;7.650;2023-02-22T11:56:29;10.27;;;9.18;;
12703;SDS011;6416;52.182;7.650;2023-02-22T12:07:29;9.73;;;8.82;;
12703;SDS011;6416;52.182;7.650;2023-02-22T12:10:02;9.75;;;8.75;;
12703;SDS011;6416;52.182;7.650;2023-02-22T12:12:53;9.82;;;8.43;;
12703;SDS011;6416;52.182;7.650;2023-02-22T12:15:32;9.27;;;8.18;;
12703;SDS011;6416;52.182;7.650;2023-02-22T12:18:20;11.35;;;8.63;;
12703;SDS011;6416;52.182;7.650;2023-02-22T12:20:53;9.98;;;8.90;;
12703;SDS011;6416;52.182;7.650;2023-02-22T12:26:15;9.45;;;8.48;;
12703;SDS011;6416;52.182;7.650;2023-02-22T12:28:50;9.05;;;8.15;;
12703;SDS011;6416;52.182;7.650;2023-02-22T12:31:20;9.43;;;8.43;;
12703;SDS011;6416;52.182;7.650;2023-02-22T12:33:54;8.75;;;7.85;;
12703;SDS011;6416;52.182;7.650;2023-02-22T12:42:48;10.38;;;8.40;;
12703;SDS011;6416;52.182;7.650;2023-02-22T12:49:27;9.45;;;8.45;;
12703;SDS011;6416;52.182;7.650;2023-02-22T12:51:34;8.82;;;7.95;;
12703;SDS011;6416;52.182;7.650;2023-02-22T12:54:15;8.52;;;7.72;;
12703;SDS011;6416;52.182;7.650;2023-02-22T13:04:52;8.13;;;7.32;;
12703;SDS011;6416;52.182;7.650;2023-02-22T13:12:40;9.07;;;8.18;;
12703;SDS011;6416;52.182;7.650;2023-02-22T13:15:26;8.68;;;7.40;;
12703;SDS011;6416;52.182;7.650;2023-02-22T13:21:02;8.80;;;7.68;;
12703;SDS011;6416;52.182;7.650;2023-02-22T13:24:02;8.75;;;7.55;;
12703;SDS011;6416;52.182;7.650;2023-02-22T13:29:14;8.13;;;7.32;;
12703;SDS011;6416;52.182;7.650;2023-02-22T13:51:44;7.88;;;7.07;;
12703;SDS011;6416;52.182;7.650;2023-02-22T13:56:44;8.55;;;7.45;;
12703;SDS011;6416;52.182;7.650;2023-02-22T14:02:06;8.52;;;7.25;;
12703;SDS011;6416;52.182;7.650;2023-02-22T14:04:51;7.30;;;6.60;;
12703;SDS011;6416;52.182;7.650;2023-02-22T14:09:46;7.40;;;6.60;;
12703;SDS011;6416;52.182;7.650;2023-02-22T14:15:16;7.70;;;6.90;;
12703;SDS011;6416;52.182;7.650;2023-02-22T14:17:42;7.28;;;6.57;;
12703;SDS011;6416;52.182;7.650;2023-02-22T14:22:38;7.30;;;6.60;;
12703;SDS011;6416;52.182;7.650;2023-02-22T14:25:04;7.65;;;6.88;;
12703;SDS011;6416;52.182;7.650;2023-02-22T14:27:39;7.20;;;6.50;;
12703;SDS011;6416;52.182;7.650;2023-02-22T14:30:06;8.20;;;7.40;;
12703;SDS011;6416;52.182;7.650;2023-02-22T14:32:47;7.73;;;6.43;;
12703;SDS011;6416;52.182;7.650;2023-02-22T14:35:13;7.82;;;7.03;;
12703;SDS011;6416;52.182;7.650;2023-02-22T14:37:41;7.28;;;6.57;;
12703;SDS011;6416;52.182;7.650;2023-02-22T14:40:18;7.30;;;6.67;;
12703;SDS011;6416;52.182;7.650;2023-02-22T14:42:48;7.97;;;6.83;;
12703;SDS011;6416;52.182;7.650;2023-02-22T14:45:28;7.53;;;6.33;;
12703;SDS011;6416;52.182;7.650;2023-02-22T14:50:53;7.50;;;6.80;;
12703;SDS011;6416;52.182;7.650;2023-02-22T14:55:59;8.47;;;7.37;;
12703;SDS011;6416;52.182;7.650;2023-02-22T15:03:56;7.13;;;6.40;;
12703;SDS011;6416;52.182;7.650;2023-02-22T15:06:22;7.03;;;6.33;;
12703;SDS011;6416;52.182;7.650;2023-02-22T15:11:30;8.40;;;7.23;;
12703;SDS011;6416;52.182;7.650;2023-02-22T15:13:56;7.57;;;6.83;;
12703;SDS011;6416;52.182;7.650;2023-02-22T15:16:24;9.70;;;6.77;;
12703;SDS011;6416;52.182;7.650;2023-02-22T15:18:53;7.80;;;7.00;;
12703;SDS011;6416;52.182;7.650;2023-02-22T15:21:24;8.90;;;6.50;;
12703;SDS011;6416;52.182;7.650;2023-02-22T15:23:55;6.70;;;6.10;;
12703;SDS011;6416;52.182;7.650;2023-02-22T15:26:28;7.30;;;6.50;;
12703;SDS011;6416;52.182;7.650;2023-02-22T15:28:55;7.50;;;6.70;;
12703;SDS011;6416;52.182;7.650;2023-02-22T15:31:25;7.60;;;6.77;;
12703;SDS011;6416;52.182;7.650;2023-02-22T15:33:51;9.10;;;6.90;;
12703;SDS011;6416;52.182;7.650;2023-02-22T15:36:18;9.07;;;6.27;;
12703;SDS011;6416;52.182;7.650;2023-02-22T15:38:52;7.63;;;6.70;;
12703;SDS011;6416;52.182;7.650;2023-02-22T15:41:19;8.70;;;6.53;;
12703;SDS011;6416;52.182;7.650;2023-02-22T15:43:55;7.23;;;6.30;;
12703;SDS011;6416;52.182;7.650;2023-02-22T15:46:33;7.47;;;6.47;;
12703;SDS011;6416;52.182;7.650;2023-02-22T15:49:32;7.40;;;6.70;;
12703;SDS011;6416;52.182;7.650;2023-02-22T15:52:01;7.33;;;6.57;;
12703;SDS011;6416;52.182;7.650;2023-02-22T15:54:36;7.87;;;6.30;;
12703;SDS011;6416;52.182;7.650;2023-02-22T15:57:06;8.10;;;6.77;;
12703;SDS011;6416;52.182;7.650;2023-02-22T15:59:36;9.03;;;7.27;;
12703;SDS011;6416;52.182;7.650;2023-02-22T16:02:18;9.93;;;7.13;;
12703;SDS011;6416;52.182;7.650;2023-02-22T16:04:57;6.87;;;6.17;;
12703;SDS011;6416;52.182;7.650;2023-02-22T16:07:29;6.50;;;5.63;;
12703;SDS011;6416;52.182;7.650;2023-02-22T16:09:55;10.43;;;7.07;;
12703;SDS011;6416;52.182;7.650;2023-02-22T16:14:46;8.67;;;6.57;;
12703;SDS011;6416;52.182;7.650;2023-02-22T16:19:57;7.43;;;6.70;;
12703;SDS011;6416;52.182;7.650;2023-02-22T16:22:31;7.53;;;6.70;;
12703;SDS011;6416;52.182;7.650;2023-02-22T16:25:10;8.27;;;6.70;;
12703;SDS011;6416;52.182;7.650;2023-02-22T16:27:40;11.77;;;9.77;;
12703;SDS011;6416;52.182;7.650;2023-02-22T16:30:19;17.33;;;12.63;;
12703;SDS011;6416;52.182;7.650;2023-02-22T16:32:51;11.10;;;9.50;;
12703;SDS011;6416;52.182;7.650;2023-02-22T16:35:18;13.53;;;8.47;;
12703;SDS011;6416;52.182;7.650;2023-02-22T16:37:47;11.13;;;8.20;;
12703;SDS011;6416;52.182;7.650;2023-02-22T16:40:29;17.60;;;9.90;;
12703;SDS011;6416;52.182;7.650;2023-02-22T16:43:06;15.87;;;10.63;;
12703;SDS011;6416;52.182;7.650;2023-02-22T16:45:35;23.27;;;10.53;;
12703;SDS011;6416;52.182;7.650;2023-02-22T16:48:01;12.17;;;9.90;;
12703;SDS011;6416;52.182;7.650;2023-02-22T16:50:44;10.43;;;9.33;;
12703;SDS011;6416;52.182;7.650;2023-02-22T16:53:10;12.70;;;9.30;;
12703;SDS011;6416;52.182;7.650;2023-02-22T16:55:36;10.90;;;9.73;;
12703;SDS011;6416;52.182;7.650;2023-02-22T16:58:02;17.60;;;9.70;;
12703;SDS011;6416;52.182;7.650;2023-02-22T17:00:28;16.73;;;9.50;;
12703;SDS011;6416;52.182;7.650;2023-02-22T17:02:54;15.50;;;10.50;;
12703;SDS011;6416;52.182;7.650;2023-02-22T17:05:19;17.20;;;9.87;;
12703;SDS011;6416;52.182;7.650;2023-02-22T17:07:45;12.47;;;9.87;;
12703;SDS011;6416;52.182;7.650;2023-02-22T17:10:14;15.33;;;9.00;;
12703;SDS011;6416;52.182;7.650;2023-02-22T17:12:42;9.90;;;8.60;;
12703;SDS011;6416;52.182;7.650;2023-02-22T17:15:13;9.63;;;8.63;;
12703;SDS011;6416;52.182;7.650;2023-02-22T17:17:45;10.57;;;8.73;;
12703;SDS011;6416;52.182;7.650;2023-02-22T17:20:11;9.97;;;8.70;;